sensor_id;sensor_type;location;lat;lon;timestamp;P1;durP1;ratioP1;P2;durP2;ratioP2
17528;SDS011;8882;53.192;8.184;2022-11-04T05:32:28;1.00;;;1.00;;
17528;SDS011;8882;53.192;8.184;2022-11-04T05:34:57;1.43;;;1.17;;
17528;SDS011;8882;53.192;8.184;2022-11-04T05:37:23;1.73;;;1.20;;
17528;SDS011;8882;53.192;8.184;2022-11-04T05:39:48;1.60;;;1.47;;
17528;SDS011;8882;53.192;8.184;2022-11-04T05:42:14;2.37;;;1.23;;
17528;SDS011;8882;53.192;8.184;2022-11-04T05:44:39;2.60;;;1.43;;
17528;SDS011;8882;53.192;8.184;2022-11-04T05:47:04;2.60;;;1.60;;
17528;SDS011;8882;53.192;8.184;2022-11-04T05:49:30;1.43;;;1.33;;
17528;SDS011;8882;53.192;8.184;2022-11-04T05:51:55;1.60;;;1.43;;
17528;SDS011;8882;53.192;8.184;2022-11-04T05:54:21;2.43;;;1.60;;
17528;SDS011;8882;53.192;8.184;2022-11-04T05:56:47;2.07;;;1.50;;
17528;SDS011;8882;53.192;8.184;2022-11-04T05:59:12;2.70;;;1.60;;
17528;SDS011;8882;53.192;8.184;2022-11-04T06:01:39;2.87;;;1.60;;
17528;SDS011;8882;53.192;8.184;2022-11-04T06:04:06;1.30;;;1.20;;
17528;SDS011;8882;53.192;8.184;2022-11-04T06:06:37;1.80;;;1.40;;
17528;SDS011;8882;53.192;8.184;2022-11-04T06:09:03;1.70;;;1.50;;
17528;SDS011;8882;53.192;8.184;2022-11-04T06:11:28;1.40;;;1.30;;
17528;SDS011;8882;53.192;8.184;2022-11-04T06:13:54;1.30;;;1.20;;
17528;SDS011;8882;53.192;8.184;2022-11-04T06:16:21;1.70;;;1.30;;
17528;SDS011;8882;53.192;8.184;2022-11-04T06:18:47;1.63;;;1.20;;
17528;SDS011;8882;53.192;8.184;2022-11-04T06:23:38;1.03;;;1.03;;
17528;SDS011;8882;53.192;8.184;2022-11-04T06:26:05;1.50;;;0.80;;
17528;SDS011;8882;53.192;8.184;2022-11-04T06:28:31;1.70;;;1.00;;
17528;SDS011;8882;53.192;8.184;2022-11-04T06:30:57;1.00;;;0.80;;
17528;SDS011;8882;53.192;8.184;2022-11-04T06:33:24;2.10;;;0.60;;
17528;SDS011;8882;53.192;8.184;2022-11-04T06:35:49;0.80;;;0.80;;
17528;SDS011;8882;53.192;8.184;2022-11-04T06:38:15;0.80;;;0.80;;
17528;SDS011;8882;53.192;8.184;2022-11-04T06:40:40;2.67;;;0.90;;
17528;SDS011;8882;53.192;8.184;2022-11-04T06:43:06;0.60;;;0.60;;
17528;SDS011;8882;53.192;8.184;2022-11-04T06:45:31;1.05;;;0.70;;
17528;SDS011;8882;53.192;8.184;2022-11-04T06:47:57;0.90;;;0.90;;
17528;SDS011;8882;53.192;8.184;2022-11-04T06:50:22;0.63;;;0.60;;
17528;SDS011;8882;53.192;8.184;2022-11-04T06:52:48;1.80;;;0.60;;
17528;SDS011;8882;53.192;8.184;2022-11-04T06:55:13;0.70;;;0.70;;
17528;SDS011;8882;53.192;8.184;2022-11-04T06:57:39;0.80;;;0.60;;
17528;SDS011;8882;53.192;8.184;2022-11-04T07:00:05;0.60;;;0.60;;
17528;SDS011;8882;53.192;8.184;2022-11-04T07:02:31;0.93;;;0.70;;
17528;SDS011;8882;53.192;8.184;2022-11-04T07:04:56;0.70;;;0.70;;
17528;SDS011;8882;53.192;8.184;2022-11-04T07:07:22;0.63;;;0.63;;
17528;SDS011;8882;53.192;8.184;2022-11-04T07:09:47;0.60;;;0.60;;
17528;SDS011;8882;53.192;8.184;2022-11-04T07:12:13;0.83;;;0.83;;
17528;SDS011;8882;53.192;8.184;2022-11-04T07:14:38;0.70;;;0.70;;
17528;SDS011;8882;53.192;8.184;2022-11-04T07:17:04;0.70;;;0.70;;
17528;SDS011;8882;53.192;8.184;2022-11-04T07:19:29;0.97;;;0.93;;
17528;SDS011;8882;53.192;8.184;2022-11-04T07:21:55;0.90;;;0.87;;
17528;SDS011;8882;53.192;8.184;2022-11-04T07:24:21;1.07;;;0.97;;
17528;SDS011;8882;53.192;8.184;2022-11-04T07:26:47;1.20;;;1.10;;
17528;SDS011;8882;53.192;8.184;2022-11-04T07:29:12;1.00;;;1.00;;
17528;SDS011;8882;53.192;8.184;2022-11-04T07:31:38;1.17;;;0.80;;
17528;SDS011;8882;53.192;8.184;2022-11-04T07:34:03;0.73;;;0.70;;
17528;SDS011;8882;53.192;8.184;2022-11-04T07:36:29;2.20;;;0.60;;
17528;SDS011;8882;53.192;8.184;2022-11-04T07:38:55;0.50;;;0.50;;
17528;SDS011;8882;53.192;8.184;2022-11-04T07:41:20;0.73;;;0.50;;
17528;SDS011;8882;53.192;8.184;2022-11-04T07:43:47;0.67;;;0.67;;
17528;SDS011;8882;53.192;8.184;2022-11-04T07:46:13;0.70;;;0.70;;
17528;SDS011;8882;53.192;8.184;2022-11-04T07:48:39;0.67;;;0.67;;
17528;SDS011;8882;53.192;8.184;2022-11-04T07:51:05;0.83;;;0.80;;
17528;SDS011;8882;53.192;8.184;2022-11-04T07:53:32;0.43;;;0.43;;
17528;SDS011;8882;53.192;8.184;2022-11-04T07:56:01;1.37;;;0.60;;
17528;SDS011;8882;53.192;8.184;2022-11-04T07:58:28;1.57;;;0.67;;
17528;SDS011;8882;53.192;8.184;2022-11-04T08:01:00;0.60;;;0.60;;
17528;SDS011;8882;53.192;8.184;2022-11-04T08:03:28;1.17;;;0.60;;
17528;SDS011;8882;53.192;8.184;2022-11-04T08:05:54;0.80;;;0.80;;
17528;SDS011;8882;53.192;8.184;2022-11-04T08:08:20;0.70;;;0.70;;
17528;SDS011;8882;53.192;8.184;2022-11-04T08:10:50;0.50;;;0.50;;
17528;SDS011;8882;53.192;8.184;2022-11-04T08:13:21;0.70;;;0.70;;
17528;SDS011;8882;53.192;8.184;2022-11-04T08:15:47;1.33;;;0.70;;
17528;SDS011;8882;53.192;8.184;2022-11-04T08:18:13;0.80;;;0.80;;
17528;SDS011;8882;53.192;8.184;2022-11-04T08:20:39;0.60;;;0.60;;
17528;SDS011;8882;53.192;8.184;2022-11-04T08:23:05;0.80;;;0.80;;
17528;SDS011;8882;53.192;8.184;2022-11-04T08:25:31;0.77;;;0.40;;
17528;SDS011;8882;53.192;8.184;2022-11-04T08:27:57;0.80;;;0.80;;
17528;SDS011;8882;53.192;8.184;2022-11-04T08:30:22;0.50;;;0.50;;
17528;SDS011;8882;53.192;8.184;2022-11-04T08:32:48;0.60;;;0.60;;
17528;SDS011;8882;53.192;8.184;2022-11-04T08:35:13;1.13;;;0.73;;
17528;SDS011;8882;53.192;8.184;2022-11-04T08:37:39;1.80;;;0.63;;
17528;SDS011;8882;53.192;8.184;2022-11-04T08:40:04;0.73;;;0.60;;
17528;SDS011;8882;53.192;8.184;2022-11-04T08:42:30;0.63;;;0.63;;
17528;SDS011;8882;53.192;8.184;2022-11-04T08:44:56;1.03;;;0.73;;
17528;SDS011;8882;53.192;8.184;2022-11-04T08:47:21;0.80;;;0.80;;
17528;SDS011;8882;53.192;8.184;2022-11-04T08:49:47;3.00;;;0.50;;
17528;SDS011;8882;53.192;8.184;2022-11-04T08:52:13;2.00;;;0.63;;
17528;SDS011;8882;53.192;8.184;2022-11-04T08:54:38;0.70;;;0.70;;
17528;SDS011;8882;53.192;8.184;2022-11-04T08:57:04;0.70;;;0.70;;
17528;SDS011;8882;53.192;8.184;2022-11-04T08:59:30;0.83;;;0.60;;
17528;SDS011;8882;53.192;8.184;2022-11-04T09:01:55;0.60;;;0.57;;
17528;SDS011;8882;53.192;8.184;2022-11-04T09:04:21;0.90;;;0.80;;
17528;SDS011;8882;53.192;8.184;2022-11-04T09:06:47;0.73;;;0.73;;
17528;SDS011;8882;53.192;8.184;2022-11-04T09:09:15;1.63;;;0.90;;
17528;SDS011;8882;53.192;8.184;2022-11-04T09:11:41;0.73;;;0.60;;
17528;SDS011;8882;53.192;8.184;2022-11-04T09:14:09;1.10;;;0.80;;
17528;SDS011;8882;53.192;8.184;2022-11-04T09:16:35;0.77;;;0.77;;
17528;SDS011;8882;53.192;8.184;2022-11-04T09:19:02;0.90;;;0.90;;
17528;SDS011;8882;53.192;8.184;2022-11-04T09:21:28;0.50;;;0.50;;
17528;SDS011;8882;53.192;8.184;2022-11-04T09:23:54;0.63;;;0.63;;
17528;SDS011;8882;53.192;8.184;2022-11-04T09:26:20;0.70;;;0.70;;
17528;SDS011;8882;53.192;8.184;2022-11-04T09:28:46;0.70;;;0.70;;
17528;SDS011;8882;53.192;8.184;2022-11-04T09:31:13;2.60;;;1.00;;
17528;SDS011;8882;53.192;8.184;2022-11-04T09:33:41;4.30;;;0.90;;
17528;SDS011;8882;53.192;8.184;2022-11-04T09:36:07;2.30;;;0.90;;
17528;SDS011;8882;53.192;8.184;2022-11-04T09:38:34;0.77;;;0.77;;
17528;SDS011;8882;53.192;8.184;2022-11-04T09:41:06;0.60;;;0.60;;
17528;SDS011;8882;53.192;8.184;2022-11-04T09:46:42;1.57;;;0.70;;
17528;SDS011;8882;53.192;8.184;2022-11-04T09:49:09;0.70;;;0.70;;
17528;SDS011;8882;53.192;8.184;2022-11-04T09:51:37;0.73;;;0.73;;
17528;SDS011;8882;53.192;8.184;2022-11-04T09:54:19;1.70;;;0.90;;
17528;SDS011;8882;53.192;8.184;2022-11-04T09:56:50;1.00;;;0.77;;
17528;SDS011;8882;53.192;8.184;2022-11-04T09:59:27;1.27;;;0.90;;
17528;SDS011;8882;53.192;8.184;2022-11-04T10:02:39;2.80;;;0.90;;
17528;SDS011;8882;53.192;8.184;2022-11-04T10:05:08;0.70;;;0.70;;
17528;SDS011;8882;53.192;8.184;2022-11-04T10:13:11;1.80;;;0.80;;
17528;SDS011;8882;53.192;8.184;2022-11-04T10:16:09;1.50;;;0.70;;
17528;SDS011;8882;53.192;8.184;2022-11-04T10:26:46;1.10;;;1.00;;
17528;SDS011;8882;53.192;8.184;2022-11-04T10:29:51;1.13;;;1.03;;
17528;SDS011;8882;53.192;8.184;2022-11-04T10:32:17;1.03;;;0.90;;
17528;SDS011;8882;53.192;8.184;2022-11-04T10:35:04;1.20;;;1.10;;
17528;SDS011;8882;53.192;8.184;2022-11-04T10:37:39;4.27;;;1.33;;
17528;SDS011;8882;53.192;8.184;2022-11-04T10:40:16;1.13;;;1.03;;
17528;SDS011;8882;53.192;8.184;2022-11-04T10:42:52;2.03;;;1.37;;
17528;SDS011;8882;53.192;8.184;2022-11-04T10:45:19;1.20;;;1.10;;
17528;SDS011;8882;53.192;8.184;2022-11-04T10:47:55;1.40;;;1.20;;
17528;SDS011;8882;53.192;8.184;2022-11-04T10:50:26;3.30;;;1.30;;
17528;SDS011;8882;53.192;8.184;2022-11-04T10:53:07;1.37;;;1.20;;
17528;SDS011;8882;53.192;8.184;2022-11-04T10:55:43;2.67;;;1.37;;
17528;SDS011;8882;53.192;8.184;2022-11-04T10:58:31;4.17;;;1.83;;
17528;SDS011;8882;53.192;8.184;2022-11-04T11:01:21;1.63;;;1.40;;
17528;SDS011;8882;53.192;8.184;2022-11-04T11:03:47;1.70;;;1.30;;
17528;SDS011;8882;53.192;8.184;2022-11-04T11:06:14;1.73;;;1.27;;
17528;SDS011;8882;53.192;8.184;2022-11-04T11:08:46;2.07;;;1.47;;
17528;SDS011;8882;53.192;8.184;2022-11-04T11:11:12;3.23;;;2.00;;
17528;SDS011;8882;53.192;8.184;2022-11-04T11:13:40;2.13;;;1.70;;
17528;SDS011;8882;53.192;8.184;2022-11-04T11:16:09;3.10;;;1.40;;
17528;SDS011;8882;53.192;8.184;2022-11-04T11:21:48;2.03;;;1.67;;
17528;SDS011;8882;53.192;8.184;2022-11-04T11:24:20;3.33;;;1.73;;
17528;SDS011;8882;53.192;8.184;2022-11-04T11:26:51;1.63;;;1.50;;
17528;SDS011;8882;53.192;8.184;2022-11-04T11:29:28;2.57;;;1.70;;
17528;SDS011;8882;53.192;8.184;2022-11-04T11:31:56;1.50;;;1.20;;
17528;SDS011;8882;53.192;8.184;2022-11-04T11:34:33;2.37;;;1.50;;
17528;SDS011;8882;53.192;8.184;2022-11-04T11:37:02;1.60;;;1.50;;
17528;SDS011;8882;53.192;8.184;2022-11-04T11:39:29;1.90;;;1.30;;
17528;SDS011;8882;53.192;8.184;2022-11-04T11:42:14;1.67;;;1.50;;
17528;SDS011;8882;53.192;8.184;2022-11-04T11:44:42;2.20;;;1.40;;
17528;SDS011;8882;53.192;8.184;2022-11-04T11:50:14;3.80;;;1.20;;
17528;SDS011;8882;53.192;8.184;2022-11-04T11:52:45;1.30;;;1.20;;
17528;SDS011;8882;53.192;8.184;2022-11-04T11:55:25;1.17;;;1.00;;
17528;SDS011;8882;53.192;8.184;2022-11-04T11:58:09;1.10;;;1.00;;
17528;SDS011;8882;53.192;8.184;2022-11-04T12:00:46;1.40;;;1.10;;
17528;SDS011;8882;53.192;8.184;2022-11-04T12:03:29;1.87;;;1.20;;
17528;SDS011;8882;53.192;8.184;2022-11-04T12:09:17;1.17;;;0.90;;
17528;SDS011;8882;53.192;8.184;2022-11-04T12:11:53;3.50;;;1.07;;
17528;SDS011;8882;53.192;8.184;2022-11-04T12:17:41;2.10;;;1.60;;
17528;SDS011;8882;53.192;8.184;2022-11-04T12:25:54;3.17;;;1.50;;
17528;SDS011;8882;53.192;8.184;2022-11-04T12:28:52;2.03;;;1.20;;
17528;SDS011;8882;53.192;8.184;2022-11-04T12:31:46;2.37;;;1.53;;
17528;SDS011;8882;53.192;8.184;2022-11-04T12:34:34;2.27;;;1.30;;
17528;SDS011;8882;53.192;8.184;2022-11-04T12:37:15;2.27;;;1.20;;
17528;SDS011;8882;53.192;8.184;2022-11-04T12:40:01;1.37;;;1.13;;
17528;SDS011;8882;53.192;8.184;2022-11-04T12:45:37;1.03;;;0.90;;
17528;SDS011;8882;53.192;8.184;2022-11-04T12:49:02;2.13;;;1.00;;
17528;SDS011;8882;53.192;8.184;2022-11-04T12:51:19;1.00;;;1.00;;
17528;SDS011;8882;53.192;8.184;2022-11-04T12:53:58;1.47;;;0.93;;
17528;SDS011;8882;53.192;8.184;2022-11-04T12:56:35;1.33;;;1.00;;
17528;SDS011;8882;53.192;8.184;2022-11-04T12:59:15;3.40;;;1.20;;
17528;SDS011;8882;53.192;8.184;2022-11-04T13:01:55;33.30;;;17.83;;
17528;SDS011;8882;53.192;8.184;2022-11-04T13:04:29;3.70;;;1.97;;
17528;SDS011;8882;53.192;8.184;2022-11-04T13:07:09;4.77;;;3.63;;
17528;SDS011;8882;53.192;8.184;2022-11-04T13:09:55;1.87;;;1.27;;
17528;SDS011;8882;53.192;8.184;2022-11-04T13:12:25;2.07;;;0.80;;
17528;SDS011;8882;53.192;8.184;2022-11-04T13:14:57;0.70;;;0.70;;
17528;SDS011;8882;53.192;8.184;2022-11-04T13:17:30;3.33;;;1.03;;
17528;SDS011;8882;53.192;8.184;2022-11-04T13:20:00;2.30;;;1.00;;
17528;SDS011;8882;53.192;8.184;2022-11-04T13:22:31;1.13;;;0.60;;
17528;SDS011;8882;53.192;8.184;2022-11-04T13:25:03;1.50;;;0.60;;
17528;SDS011;8882;53.192;8.184;2022-11-04T13:27:45;0.93;;;0.60;;
17528;SDS011;8882;53.192;8.184;2022-11-04T13:30:19;0.40;;;0.40;;
17528;SDS011;8882;53.192;8.184;2022-11-04T13:32:59;3.93;;;0.70;;
17528;SDS011;8882;53.192;8.184;2022-11-04T13:35:54;0.77;;;0.77;;
17528;SDS011;8882;53.192;8.184;2022-11-04T13:38:43;3.10;;;0.70;;
17528;SDS011;8882;53.192;8.184;2022-11-04T13:41:26;3.00;;;0.70;;
17528;SDS011;8882;53.192;8.184;2022-11-04T13:44:12;2.57;;;0.50;;
17528;SDS011;8882;53.192;8.184;2022-11-04T13:46:52;1.50;;;0.73;;
17528;SDS011;8882;53.192;8.184;2022-11-04T13:49:23;1.07;;;0.60;;
17528;SDS011;8882;53.192;8.184;2022-11-04T13:57:26;1.23;;;0.83;;
17528;SDS011;8882;53.192;8.184;2022-11-04T14:02:42;1.80;;;0.73;;
17528;SDS011;8882;53.192;8.184;2022-11-04T14:16:02;1.83;;;0.70;;
17528;SDS011;8882;53.192;8.184;2022-11-04T14:18:34;1.17;;;1.07;;
17528;SDS011;8882;53.192;8.184;2022-11-04T14:23:40;6.77;;;1.20;;
17528;SDS011;8882;53.192;8.184;2022-11-04T14:26:08;0.53;;;0.53;;
17528;SDS011;8882;53.192;8.184;2022-11-04T14:28:35;1.30;;;0.50;;
17528;SDS011;8882;53.192;8.184;2022-11-04T14:31:02;1.57;;;0.70;;
17528;SDS011;8882;53.192;8.184;2022-11-04T14:33:34;0.93;;;0.60;;
17528;SDS011;8882;53.192;8.184;2022-11-04T14:36:13;1.03;;;0.70;;
17528;SDS011;8882;53.192;8.184;2022-11-04T14:38:51;0.63;;;0.63;;
17528;SDS011;8882;53.192;8.184;2022-11-04T14:46:57;1.63;;;0.90;;
17528;SDS011;8882;53.192;8.184;2022-11-04T14:49:44;3.23;;;0.80;;
17528;SDS011;8882;53.192;8.184;2022-11-04T14:52:16;1.60;;;0.80;;
17528;SDS011;8882;53.192;8.184;2022-11-04T14:54:43;2.60;;;0.70;;
17528;SDS011;8882;53.192;8.184;2022-11-04T14:57:13;1.63;;;0.80;;
17528;SDS011;8882;53.192;8.184;2022-11-04T14:59:39;1.90;;;0.80;;
17528;SDS011;8882;53.192;8.184;2022-11-04T15:02:09;0.63;;;0.60;;
17528;SDS011;8882;53.192;8.184;2022-11-04T15:04:46;3.07;;;0.87;;
17528;SDS011;8882;53.192;8.184;2022-11-04T15:07:22;3.17;;;0.93;;
17528;SDS011;8882;53.192;8.184;2022-11-04T15:09:51;1.83;;;0.90;;
17528;SDS011;8882;53.192;8.184;2022-11-04T15:12:17;1.40;;;0.83;;
17528;SDS011;8882;53.192;8.184;2022-11-04T15:15:22;1.27;;;0.80;;
17528;SDS011;8882;53.192;8.184;2022-11-04T15:17:59;2.20;;;0.80;;
17528;SDS011;8882;53.192;8.184;2022-11-04T15:20:31;1.23;;;0.60;;
17528;SDS011;8882;53.192;8.184;2022-11-04T15:23:00;4.77;;;0.73;;
17528;SDS011;8882;53.192;8.184;2022-11-04T15:25:28;2.23;;;0.80;;
17528;SDS011;8882;53.192;8.184;2022-11-04T15:27:54;1.50;;;0.90;;
17528;SDS011;8882;53.192;8.184;2022-11-04T15:30:27;1.83;;;0.63;;
17528;SDS011;8882;53.192;8.184;2022-11-04T15:32:59;0.93;;;0.80;;
17528;SDS011;8882;53.192;8.184;2022-11-04T15:35:30;1.33;;;0.90;;
17528;SDS011;8882;53.192;8.184;2022-11-04T15:37:57;1.70;;;0.90;;
17528;SDS011;8882;53.192;8.184;2022-11-04T15:40:27;4.73;;;0.90;;
17528;SDS011;8882;53.192;8.184;2022-11-04T15:42:54;1.10;;;0.77;;
17528;SDS011;8882;53.192;8.184;2022-11-04T15:47:46;1.97;;;1.20;;
17528;SDS011;8882;53.192;8.184;2022-11-04T15:50:23;3.30;;;1.23;;
17528;SDS011;8882;53.192;8.184;2022-11-04T15:52:51;1.03;;;0.83;;
17528;SDS011;8882;53.192;8.184;2022-11-04T15:55:19;3.17;;;0.90;;
17528;SDS011;8882;53.192;8.184;2022-11-04T15:57:47;2.73;;;0.80;;
17528;SDS011;8882;53.192;8.184;2022-11-04T16:02:47;2.80;;;1.17;;
17528;SDS011;8882;53.192;8.184;2022-11-04T16:07:44;0.80;;;0.80;;
17528;SDS011;8882;53.192;8.184;2022-11-04T16:10:30;1.33;;;0.83;;
17528;SDS011;8882;53.192;8.184;2022-11-04T16:13:18;1.40;;;0.73;;
17528;SDS011;8882;53.192;8.184;2022-11-04T16:15:50;1.17;;;0.70;;
17528;SDS011;8882;53.192;8.184;2022-11-04T16:18:33;2.13;;;0.90;;
17528;SDS011;8882;53.192;8.184;2022-11-04T16:21:13;3.33;;;1.30;;
17528;SDS011;8882;53.192;8.184;2022-11-04T16:26:28;1.83;;;1.30;;
17528;SDS011;8882;53.192;8.184;2022-11-04T16:29:04;1.93;;;1.30;;
17528;SDS011;8882;53.192;8.184;2022-11-04T16:31:40;2.30;;;1.50;;
17528;SDS011;8882;53.192;8.184;2022-11-04T16:34:08;2.13;;;1.93;;
17528;SDS011;8882;53.192;8.184;2022-11-04T16:36:36;3.10;;;1.93;;
17528;SDS011;8882;53.192;8.184;2022-11-04T16:39:02;4.40;;;1.83;;
17528;SDS011;8882;53.192;8.184;2022-11-04T16:41:33;2.03;;;1.63;;
17528;SDS011;8882;53.192;8.184;2022-11-04T16:44:01;3.17;;;1.50;;
17528;SDS011;8882;53.192;8.184;2022-11-04T16:46:28;2.97;;;1.17;;
17528;SDS011;8882;53.192;8.184;2022-11-04T16:48:53;2.60;;;1.50;;
17528;SDS011;8882;53.192;8.184;2022-11-04T16:51:20;2.70;;;1.93;;
17528;SDS011;8882;53.192;8.184;2022-11-04T16:53:47;2.63;;;1.80;;
17528;SDS011;8882;53.192;8.184;2022-11-04T16:56:18;2.37;;;1.73;;
17528;SDS011;8882;53.192;8.184;2022-11-04T16:58:48;3.17;;;1.50;;
17528;SDS011;8882;53.192;8.184;2022-11-04T17:01:14;5.23;;;1.87;;
17528;SDS011;8882;53.192;8.184;2022-11-04T17:03:40;2.30;;;2.00;;
17528;SDS011;8882;53.192;8.184;2022-11-04T17:06:10;1.67;;;1.37;;
17528;SDS011;8882;53.192;8.184;2022-11-04T17:08:37;1.47;;;1.37;;
17528;SDS011;8882;53.192;8.184;2022-11-04T17:11:04;1.83;;;1.73;;
17528;SDS011;8882;53.192;8.184;2022-11-04T17:13:30;4.63;;;2.23;;
17528;SDS011;8882;53.192;8.184;2022-11-04T17:15:57;3.77;;;2.10;;
17528;SDS011;8882;53.192;8.184;2022-11-04T17:18:23;3.60;;;1.93;;
17528;SDS011;8882;53.192;8.184;2022-11-04T17:20:50;3.67;;;2.23;;
17528;SDS011;8882;53.192;8.184;2022-11-04T17:23:18;5.53;;;2.00;;
17528;SDS011;8882;53.192;8.184;2022-11-04T17:25:44;2.33;;;1.73;;
17528;SDS011;8882;53.192;8.184;2022-11-04T17:28:09;3.10;;;2.23;;
17528;SDS011;8882;53.192;8.184;2022-11-04T17:30:35;2.63;;;1.77;;
17528;SDS011;8882;53.192;8.184;2022-11-04T17:33:01;4.10;;;2.30;;
17528;SDS011;8882;53.192;8.184;2022-11-04T17:35:32;2.97;;;2.40;;
17528;SDS011;8882;53.192;8.184;2022-11-04T17:38:01;4.97;;;2.10;;
17528;SDS011;8882;53.192;8.184;2022-11-04T17:40:26;5.80;;;2.97;;
17528;SDS011;8882;53.192;8.184;2022-11-04T17:42:52;5.20;;;2.53;;
17528;SDS011;8882;53.192;8.184;2022-11-04T17:45:36;5.67;;;2.57;;
17528;SDS011;8882;53.192;8.184;2022-11-04T17:48:02;6.33;;;2.80;;
17528;SDS011;8882;53.192;8.184;2022-11-04T17:50:29;8.17;;;2.97;;
17528;SDS011;8882;53.192;8.184;2022-11-04T17:52:55;6.93;;;3.47;;
17528;SDS011;8882;53.192;8.184;2022-11-04T17:55:21;3.73;;;3.10;;
17528;SDS011;8882;53.192;8.184;2022-11-04T17:57:46;4.60;;;3.57;;
17528;SDS011;8882;53.192;8.184;2022-11-04T18:00:12;5.50;;;3.40;;
17528;SDS011;8882;53.192;8.184;2022-11-04T18:02:38;6.70;;;3.23;;
17528;SDS011;8882;53.192;8.184;2022-11-04T18:05:05;3.83;;;2.57;;
17528;SDS011;8882;53.192;8.184;2022-11-04T18:07:31;5.70;;;2.50;;
17528;SDS011;8882;53.192;8.184;2022-11-04T18:09:57;4.77;;;2.63;;
17528;SDS011;8882;53.192;8.184;2022-11-04T18:12:23;5.20;;;2.50;;
17528;SDS011;8882;53.192;8.184;2022-11-04T18:15:01;3.17;;;2.27;;
17528;SDS011;8882;53.192;8.184;2022-11-04T18:17:34;4.27;;;2.90;;
17528;SDS011;8882;53.192;8.184;2022-11-04T18:20:01;4.83;;;2.90;;
17528;SDS011;8882;53.192;8.184;2022-11-04T18:22:28;6.00;;;3.30;;
17528;SDS011;8882;53.192;8.184;2022-11-04T18:26:18;6.70;;;3.03;;
17528;SDS011;8882;53.192;8.184;2022-11-04T18:28:43;19.20;;;10.10;;
17528;SDS011;8882;53.192;8.184;2022-11-04T18:31:09;7.77;;;5.30;;
17528;SDS011;8882;53.192;8.184;2022-11-04T18:33:39;5.53;;;3.60;;
17528;SDS011;8882;53.192;8.184;2022-11-04T18:36:06;11.80;;;4.13;;
17528;SDS011;8882;53.192;8.184;2022-11-04T18:38:32;6.87;;;2.53;;
17528;SDS011;8882;53.192;8.184;2022-11-04T18:40:58;6.93;;;2.70;;
17528;SDS011;8882;53.192;8.184;2022-11-04T18:43:23;7.50;;;5.03;;
17528;SDS011;8882;53.192;8.184;2022-11-04T18:45:49;4.37;;;3.50;;
17528;SDS011;8882;53.192;8.184;2022-11-04T18:48:15;8.00;;;4.70;;
17528;SDS011;8882;53.192;8.184;2022-11-04T18:50:41;9.07;;;4.83;;
17528;SDS011;8882;53.192;8.184;2022-11-04T18:53:07;14.17;;;6.60;;
17528;SDS011;8882;53.192;8.184;2022-11-04T18:55:32;4.00;;;2.43;;
17528;SDS011;8882;53.192;8.184;2022-11-04T18:57:58;9.88;;;4.85;;
17528;SDS011;8882;53.192;8.184;2022-11-04T19:00:23;20.33;;;10.57;;
17528;SDS011;8882;53.192;8.184;2022-11-04T19:02:49;5.97;;;3.93;;
17528;SDS011;8882;53.192;8.184;2022-11-04T19:05:15;8.90;;;4.00;;
17528;SDS011;8882;53.192;8.184;2022-11-04T19:07:41;7.83;;;4.00;;
17528;SDS011;8882;53.192;8.184;2022-11-04T19:10:07;13.17;;;4.17;;
17528;SDS011;8882;53.192;8.184;2022-11-04T19:12:33;4.77;;;3.07;;
17528;SDS011;8882;53.192;8.184;2022-11-04T19:15:17;5.10;;;2.97;;
17528;SDS011;8882;53.192;8.184;2022-11-04T19:17:43;4.47;;;2.27;;
17528;SDS011;8882;53.192;8.184;2022-11-04T19:20:09;11.63;;;5.50;;
17528;SDS011;8882;53.192;8.184;2022-11-04T19:22:35;5.00;;;3.33;;
17528;SDS011;8882;53.192;8.184;2022-11-04T19:25:00;8.67;;;4.90;;
17528;SDS011;8882;53.192;8.184;2022-11-04T19:27:26;4.33;;;3.53;;
17528;SDS011;8882;53.192;8.184;2022-11-04T19:29:51;3.50;;;3.20;;
17528;SDS011;8882;53.192;8.184;2022-11-04T19:32:17;6.43;;;3.67;;
17528;SDS011;8882;53.192;8.184;2022-11-04T19:34:43;4.50;;;3.10;;
17528;SDS011;8882;53.192;8.184;2022-11-04T19:37:08;4.10;;;2.47;;
17528;SDS011;8882;53.192;8.184;2022-11-04T19:39:34;5.33;;;3.03;;
17528;SDS011;8882;53.192;8.184;2022-11-04T19:42:00;3.63;;;2.40;;
17528;SDS011;8882;53.192;8.184;2022-11-04T19:44:45;2.73;;;2.40;;
17528;SDS011;8882;53.192;8.184;2022-11-04T19:47:10;4.77;;;2.30;;
17528;SDS011;8882;53.192;8.184;2022-11-04T19:49:36;4.00;;;3.03;;
17528;SDS011;8882;53.192;8.184;2022-11-04T19:52:01;3.87;;;2.93;;
17528;SDS011;8882;53.192;8.184;2022-11-04T19:54:27;7.17;;;3.50;;
17528;SDS011;8882;53.192;8.184;2022-11-04T19:56:53;5.03;;;3.23;;
17528;SDS011;8882;53.192;8.184;2022-11-04T19:59:18;5.67;;;3.83;;
17528;SDS011;8882;53.192;8.184;2022-11-04T20:01:44;8.37;;;3.93;;
17528;SDS011;8882;53.192;8.184;2022-11-04T20:04:10;9.47;;;5.27;;
17528;SDS011;8882;53.192;8.184;2022-11-04T20:06:36;7.43;;;4.47;;
17528;SDS011;8882;53.192;8.184;2022-11-04T20:09:03;8.63;;;4.40;;
17528;SDS011;8882;53.192;8.184;2022-11-04T20:11:30;9.70;;;4.63;;
17528;SDS011;8882;53.192;8.184;2022-11-04T20:14:20;15.17;;;7.60;;
17528;SDS011;8882;53.192;8.184;2022-11-04T20:16:46;11.23;;;5.53;;
17528;SDS011;8882;53.192;8.184;2022-11-04T20:19:11;8.77;;;4.37;;
17528;SDS011;8882;53.192;8.184;2022-11-04T20:21:36;6.87;;;4.17;;
17528;SDS011;8882;53.192;8.184;2022-11-04T20:24:03;4.47;;;3.40;;
17528;SDS011;8882;53.192;8.184;2022-11-04T20:26:31;5.20;;;3.33;;
17528;SDS011;8882;53.192;8.184;2022-11-04T20:28:58;8.23;;;3.30;;
17528;SDS011;8882;53.192;8.184;2022-11-04T20:31:28;4.00;;;3.03;;
17528;SDS011;8882;53.192;8.184;2022-11-04T20:33:55;8.50;;;2.73;;
17528;SDS011;8882;53.192;8.184;2022-11-04T20:36:21;4.43;;;2.77;;
17528;SDS011;8882;53.192;8.184;2022-11-04T20:38:53;4.83;;;3.20;;
17528;SDS011;8882;53.192;8.184;2022-11-04T20:41:23;4.53;;;3.77;;
17528;SDS011;8882;53.192;8.184;2022-11-04T20:43:49;6.83;;;3.20;;
17528;SDS011;8882;53.192;8.184;2022-11-04T20:46:15;6.40;;;5.30;;
17528;SDS011;8882;53.192;8.184;2022-11-04T20:48:46;9.00;;;4.17;;
17528;SDS011;8882;53.192;8.184;2022-11-04T20:51:13;8.60;;;4.30;;
17528;SDS011;8882;53.192;8.184;2022-11-04T20:53:40;7.03;;;4.80;;
17528;SDS011;8882;53.192;8.184;2022-11-04T20:56:06;6.40;;;4.53;;
17528;SDS011;8882;53.192;8.184;2022-11-04T20:58:37;8.63;;;4.30;;
17528;SDS011;8882;53.192;8.184;2022-11-04T21:01:08;6.00;;;4.03;;
17528;SDS011;8882;53.192;8.184;2022-11-04T21:03:35;7.63;;;3.50;;
17528;SDS011;8882;53.192;8.184;2022-11-04T21:06:01;7.87;;;3.30;;
17528;SDS011;8882;53.192;8.184;2022-11-04T21:08:26;4.53;;;3.10;;
17528;SDS011;8882;53.192;8.184;2022-11-04T21:10:52;6.23;;;2.53;;
17528;SDS011;8882;53.192;8.184;2022-11-04T21:13:19;5.07;;;2.80;;
17528;SDS011;8882;53.192;8.184;2022-11-04T21:15:52;6.47;;;2.90;;
17528;SDS011;8882;53.192;8.184;2022-11-04T21:18:19;4.63;;;3.10;;
17528;SDS011;8882;53.192;8.184;2022-11-04T21:20:45;5.37;;;3.17;;
17528;SDS011;8882;53.192;8.184;2022-11-04T21:23:11;7.57;;;3.03;;
17528;SDS011;8882;53.192;8.184;2022-11-04T21:25:39;5.17;;;3.37;;
17528;SDS011;8882;53.192;8.184;2022-11-04T21:28:11;4.33;;;3.10;;
17528;SDS011;8882;53.192;8.184;2022-11-04T21:30:37;4.90;;;3.03;;
17528;SDS011;8882;53.192;8.184;2022-11-04T21:33:04;7.77;;;3.20;;
17528;SDS011;8882;53.192;8.184;2022-11-04T21:35:32;5.77;;;3.10;;
17528;SDS011;8882;53.192;8.184;2022-11-04T21:37:59;7.13;;;3.70;;
17528;SDS011;8882;53.192;8.184;2022-11-04T21:40:25;5.57;;;3.00;;
17528;SDS011;8882;53.192;8.184;2022-11-04T21:42:51;7.70;;;3.33;;
17528;SDS011;8882;53.192;8.184;2022-11-04T21:45:16;4.83;;;3.00;;
17528;SDS011;8882;53.192;8.184;2022-11-04T21:47:42;3.30;;;2.90;;
17528;SDS011;8882;53.192;8.184;2022-11-04T21:50:07;7.10;;;2.97;;
17528;SDS011;8882;53.192;8.184;2022-11-04T21:52:33;3.77;;;2.90;;
17528;SDS011;8882;53.192;8.184;2022-11-04T21:54:59;4.87;;;2.97;;
17528;SDS011;8882;53.192;8.184;2022-11-04T21:57:24;8.70;;;3.07;;
17528;SDS011;8882;53.192;8.184;2022-11-04T21:59:50;3.60;;;2.70;;
